Aviation Digital Data Service (ADDS)

Output produced by TAFs form (2058 UTC 26 April 2015)
found at http://aviationweather.gov/adds/tafs/
 
KTEX 262004Z 2620/2718 27011KT 1/2SM SN FG BKN002 OVC010 
     FM262200 27007KT 6SM -SHSN VCTS SCT006 BKN025 OVC050CB 
     TEMPO 2622/2624 2SM -SHSN BR BKN009 
     FM270300 19005KT 5SM -SN BR BKN020 OVC040 
     FM270700 14004KT 5SM BR VCSH SCT004 BKN030